< < Back
Terminal Aerodrome Forecast


Current Version              Previous Versions:   1  2  3  4  5  6  7  8  9  

Terminal Aerodrome Forecast

670
FTUS42 KILM 152000 CCA
TAFFLO
TAF COR
KFLO 152049Z 1521/1618 21012G22KT P6SM -RA SCT030 BKN060
      TEMPO 1521/1523 28015G25KT 3SM SHRA BKN025
     FM152300 31015G20KT 4SM -RA BR BKN015 OVC025
     FM160100 34012KT P6SM SCT025 OVC050
     FM160400 36012G17KT P6SM FEW050
     FM161300 04015G23KT P6SM SKC=



Latest METAR

322
SAUS70 KWBC 160700
MTRFLO
METAR KFLO 160653Z AUTO 36009KT 10SM CLR 05/M01 A3011 RMK AO2 SLP193
T00501011


USA.gov is the U.S. government's official web portal to all federal, state and local government web resources and services.